sensor_id;sensor_type;location;lat;lon;timestamp;P1;durP1;ratioP1;P2;durP2;ratioP2
19495;SDS011;9888;48.606;9.630;2022-10-23T00:01:16;11.93;;;5.10;;
19495;SDS011;9888;48.606;9.630;2022-10-23T00:03:46;12.53;;;5.07;;
19495;SDS011;9888;48.606;9.630;2022-10-23T00:06:17;10.97;;;4.80;;
19495;SDS011;9888;48.606;9.630;2022-10-23T00:08:47;10.40;;;5.53;;
19495;SDS011;9888;48.606;9.630;2022-10-23T00:11:20;10.13;;;4.90;;
19495;SDS011;9888;48.606;9.630;2022-10-23T00:13:51;9.60;;;5.20;;
19495;SDS011;9888;48.606;9.630;2022-10-23T00:19:14;13.43;;;5.57;;
19495;SDS011;9888;48.606;9.630;2022-10-23T00:21:43;10.37;;;3.93;;
19495;SDS011;9888;48.606;9.630;2022-10-23T00:24:18;8.90;;;4.30;;
19495;SDS011;9888;48.606;9.630;2022-10-23T00:26:49;9.57;;;4.70;;
19495;SDS011;9888;48.606;9.630;2022-10-23T00:29:20;11.30;;;4.37;;
19495;SDS011;9888;48.606;9.630;2022-10-23T00:31:49;7.83;;;2.80;;
19495;SDS011;9888;48.606;9.630;2022-10-23T00:34:19;8.90;;;3.03;;
19495;SDS011;9888;48.606;9.630;2022-10-23T00:36:54;8.40;;;2.67;;
19495;SDS011;9888;48.606;9.630;2022-10-23T00:39:20;7.80;;;3.50;;
19495;SDS011;9888;48.606;9.630;2022-10-23T00:41:47;9.20;;;3.57;;
19495;SDS011;9888;48.606;9.630;2022-10-23T00:46:49;8.10;;;3.70;;
19495;SDS011;9888;48.606;9.630;2022-10-23T00:49:37;9.27;;;4.10;;
19495;SDS011;9888;48.606;9.630;2022-10-23T00:52:07;8.23;;;4.03;;
19495;SDS011;9888;48.606;9.630;2022-10-23T00:54:39;9.10;;;4.70;;
19495;SDS011;9888;48.606;9.630;2022-10-23T00:57:12;9.83;;;4.30;;
19495;SDS011;9888;48.606;9.630;2022-10-23T00:59:41;9.23;;;4.50;;
19495;SDS011;9888;48.606;9.630;2022-10-23T01:02:09;14.87;;;4.40;;
19495;SDS011;9888;48.606;9.630;2022-10-23T01:04:37;11.67;;;5.00;;
19495;SDS011;9888;48.606;9.630;2022-10-23T01:07:16;9.80;;;4.53;;
19495;SDS011;9888;48.606;9.630;2022-10-23T01:10:38;13.00;;;4.40;;
19495;SDS011;9888;48.606;9.630;2022-10-23T01:13:14;10.63;;;4.97;;
19495;SDS011;9888;48.606;9.630;2022-10-23T01:16:03;9.80;;;4.30;;
19495;SDS011;9888;48.606;9.630;2022-10-23T01:19:19;7.80;;;3.50;;
19495;SDS011;9888;48.606;9.630;2022-10-23T01:22:08;10.70;;;3.80;;
19495;SDS011;9888;48.606;9.630;2022-10-23T01:25:00;8.27;;;3.73;;
19495;SDS011;9888;48.606;9.630;2022-10-23T01:28:09;10.23;;;3.90;;
19495;SDS011;9888;48.606;9.630;2022-10-23T01:30:41;8.57;;;3.73;;
19495;SDS011;9888;48.606;9.630;2022-10-23T01:33:23;10.37;;;4.03;;
19495;SDS011;9888;48.606;9.630;2022-10-23T01:36:02;15.73;;;4.00;;
19495;SDS011;9888;48.606;9.630;2022-10-23T01:41:09;8.47;;;3.90;;
19495;SDS011;9888;48.606;9.630;2022-10-23T01:46:54;9.47;;;3.73;;
19495;SDS011;9888;48.606;9.630;2022-10-23T01:49:39;7.00;;;3.03;;
19495;SDS011;9888;48.606;9.630;2022-10-23T01:52:13;8.17;;;3.50;;
19495;SDS011;9888;48.606;9.630;2022-10-23T01:57:37;8.60;;;3.57;;
19495;SDS011;9888;48.606;9.630;2022-10-23T02:03:36;8.80;;;3.50;;
19495;SDS011;9888;48.606;9.630;2022-10-23T02:06:07;7.40;;;2.70;;
19495;SDS011;9888;48.606;9.630;2022-10-23T02:08:35;7.90;;;2.63;;
19495;SDS011;9888;48.606;9.630;2022-10-23T02:11:14;9.03;;;2.80;;
19495;SDS011;9888;48.606;9.630;2022-10-23T02:16:38;10.60;;;3.17;;
19495;SDS011;9888;48.606;9.630;2022-10-23T02:22:22;7.60;;;2.80;;
19495;SDS011;9888;48.606;9.630;2022-10-23T02:28:20;10.80;;;2.60;;
19495;SDS011;9888;48.606;9.630;2022-10-23T02:31:00;6.57;;;2.10;;
19495;SDS011;9888;48.606;9.630;2022-10-23T02:36:54;11.23;;;3.30;;
19495;SDS011;9888;48.606;9.630;2022-10-23T02:39:35;9.37;;;2.67;;
19495;SDS011;9888;48.606;9.630;2022-10-23T02:59:14;6.53;;;2.00;;
19495;SDS011;9888;48.606;9.630;2022-10-23T03:04:56;7.70;;;2.77;;
19495;SDS011;9888;48.606;9.630;2022-10-23T03:07:36;7.80;;;2.40;;
19495;SDS011;9888;48.606;9.630;2022-10-23T03:10:14;7.00;;;2.77;;
19495;SDS011;9888;48.606;9.630;2022-10-23T03:12:55;7.83;;;2.47;;
19495;SDS011;9888;48.606;9.630;2022-10-23T03:15:24;8.40;;;2.63;;
19495;SDS011;9888;48.606;9.630;2022-10-23T03:17:56;8.93;;;2.70;;
19495;SDS011;9888;48.606;9.630;2022-10-23T03:20:23;10.13;;;2.43;;
19495;SDS011;9888;48.606;9.630;2022-10-23T03:23:03;6.67;;;2.60;;
19495;SDS011;9888;48.606;9.630;2022-10-23T03:25:37;7.63;;;2.33;;
19495;SDS011;9888;48.606;9.630;2022-10-23T03:28:05;7.43;;;2.33;;
19495;SDS011;9888;48.606;9.630;2022-10-23T03:30:32;7.43;;;2.60;;
19495;SDS011;9888;48.606;9.630;2022-10-23T03:33:07;9.83;;;2.37;;
19495;SDS011;9888;48.606;9.630;2022-10-23T03:35:36;8.70;;;3.03;;
19495;SDS011;9888;48.606;9.630;2022-10-23T03:38:03;6.93;;;2.90;;
19495;SDS011;9888;48.606;9.630;2022-10-23T03:40:31;8.60;;;2.40;;
19495;SDS011;9888;48.606;9.630;2022-10-23T03:42:58;11.03;;;2.87;;
19495;SDS011;9888;48.606;9.630;2022-10-23T03:48:42;10.30;;;2.70;;
19495;SDS011;9888;48.606;9.630;2022-10-23T03:51:10;8.73;;;2.67;;
19495;SDS011;9888;48.606;9.630;2022-10-23T03:56:55;6.40;;;2.53;;
19495;SDS011;9888;48.606;9.630;2022-10-23T03:59:26;5.93;;;2.30;;
19495;SDS011;9888;48.606;9.630;2022-10-23T04:01:56;6.83;;;2.17;;
19495;SDS011;9888;48.606;9.630;2022-10-23T04:04:24;6.80;;;3.00;;
19495;SDS011;9888;48.606;9.630;2022-10-23T04:10:07;9.07;;;2.40;;
19495;SDS011;9888;48.606;9.630;2022-10-23T04:15:58;9.60;;;2.60;;
19495;SDS011;9888;48.606;9.630;2022-10-23T04:18:26;6.37;;;2.53;;
19495;SDS011;9888;48.606;9.630;2022-10-23T04:20:55;6.93;;;2.47;;
19495;SDS011;9888;48.606;9.630;2022-10-23T04:26:44;6.40;;;2.10;;
19495;SDS011;9888;48.606;9.630;2022-10-23T04:29:22;7.67;;;2.53;;
19495;SDS011;9888;48.606;9.630;2022-10-23T04:31:57;7.80;;;2.40;;
19495;SDS011;9888;48.606;9.630;2022-10-23T04:37:13;6.40;;;2.37;;
19495;SDS011;9888;48.606;9.630;2022-10-23T04:39:42;8.00;;;3.20;;
19495;SDS011;9888;48.606;9.630;2022-10-23T04:42:10;10.73;;;2.47;;
19495;SDS011;9888;48.606;9.630;2022-10-23T04:44:38;8.60;;;2.80;;
19495;SDS011;9888;48.606;9.630;2022-10-23T04:50:28;8.90;;;2.80;;
19495;SDS011;9888;48.606;9.630;2022-10-23T04:52:57;11.70;;;2.80;;
19495;SDS011;9888;48.606;9.630;2022-10-23T04:55:28;7.80;;;2.87;;
19495;SDS011;9888;48.606;9.630;2022-10-23T04:57:56;7.30;;;2.60;;
19495;SDS011;9888;48.606;9.630;2022-10-23T05:03:53;9.23;;;2.80;;
19495;SDS011;9888;48.606;9.630;2022-10-23T05:06:23;8.60;;;2.97;;
19495;SDS011;9888;48.606;9.630;2022-10-23T05:09:05;7.70;;;2.50;;
19495;SDS011;9888;48.606;9.630;2022-10-23T05:11:45;6.83;;;2.70;;
19495;SDS011;9888;48.606;9.630;2022-10-23T05:14:13;10.70;;;4.50;;
19495;SDS011;9888;48.606;9.630;2022-10-23T05:20:18;8.30;;;2.80;;
19495;SDS011;9888;48.606;9.630;2022-10-23T05:23:01;8.00;;;2.83;;
19495;SDS011;9888;48.606;9.630;2022-10-23T05:25:35;11.33;;;3.20;;
19495;SDS011;9888;48.606;9.630;2022-10-23T05:28:05;7.70;;;3.33;;
19495;SDS011;9888;48.606;9.630;2022-10-23T05:30:38;7.40;;;3.07;;
19495;SDS011;9888;48.606;9.630;2022-10-23T05:33:12;8.43;;;3.27;;
19495;SDS011;9888;48.606;9.630;2022-10-23T05:39:01;9.07;;;2.97;;
19495;SDS011;9888;48.606;9.630;2022-10-23T05:41:31;8.80;;;3.27;;
19495;SDS011;9888;48.606;9.630;2022-10-23T05:43:59;7.53;;;2.77;;
19495;SDS011;9888;48.606;9.630;2022-10-23T05:46:42;6.73;;;2.60;;
19495;SDS011;9888;48.606;9.630;2022-10-23T05:49:10;10.83;;;2.90;;
19495;SDS011;9888;48.606;9.630;2022-10-23T05:52:17;8.17;;;3.13;;
19495;SDS011;9888;48.606;9.630;2022-10-23T05:54:46;6.90;;;2.77;;
19495;SDS011;9888;48.606;9.630;2022-10-23T05:57:17;14.03;;;4.00;;
19495;SDS011;9888;48.606;9.630;2022-10-23T06:03:24;15.00;;;3.53;;
19495;SDS011;9888;48.606;9.630;2022-10-23T06:06:03;8.13;;;2.77;;
19495;SDS011;9888;48.606;9.630;2022-10-23T06:08:46;8.10;;;3.20;;
19495;SDS011;9888;48.606;9.630;2022-10-23T06:12:01;8.77;;;2.80;;
19495;SDS011;9888;48.606;9.630;2022-10-23T06:14:33;6.63;;;2.37;;
19495;SDS011;9888;48.606;9.630;2022-10-23T06:17:03;7.03;;;2.70;;
19495;SDS011;9888;48.606;9.630;2022-10-23T06:19:32;6.97;;;2.40;;
19495;SDS011;9888;48.606;9.630;2022-10-23T06:25:23;10.63;;;2.70;;
19495;SDS011;9888;48.606;9.630;2022-10-23T06:27:52;10.03;;;3.07;;
19495;SDS011;9888;48.606;9.630;2022-10-23T06:30:19;11.97;;;3.63;;
19495;SDS011;9888;48.606;9.630;2022-10-23T06:32:49;8.00;;;2.80;;
19495;SDS011;9888;48.606;9.630;2022-10-23T06:35:29;11.20;;;3.47;;
19495;SDS011;9888;48.606;9.630;2022-10-23T06:38:00;7.50;;;2.90;;
19495;SDS011;9888;48.606;9.630;2022-10-23T06:40:28;13.83;;;3.87;;
19495;SDS011;9888;48.606;9.630;2022-10-23T06:42:55;8.00;;;3.10;;
19495;SDS011;9888;48.606;9.630;2022-10-23T06:45:24;7.60;;;2.90;;
19495;SDS011;9888;48.606;9.630;2022-10-23T06:48:07;8.80;;;3.20;;
19495;SDS011;9888;48.606;9.630;2022-10-23T06:50:37;8.43;;;3.47;;
19495;SDS011;9888;48.606;9.630;2022-10-23T06:53:06;7.00;;;2.80;;
19495;SDS011;9888;48.606;9.630;2022-10-23T06:55:34;7.27;;;2.80;;
19495;SDS011;9888;48.606;9.630;2022-10-23T06:58:13;6.63;;;2.80;;
19495;SDS011;9888;48.606;9.630;2022-10-23T07:01:07;8.73;;;2.80;;
19495;SDS011;9888;48.606;9.630;2022-10-23T07:03:39;6.90;;;2.50;;
19495;SDS011;9888;48.606;9.630;2022-10-23T07:09:16;8.83;;;3.17;;
19495;SDS011;9888;48.606;9.630;2022-10-23T07:11:49;7.83;;;3.20;;
19495;SDS011;9888;48.606;9.630;2022-10-23T07:14:30;7.63;;;2.90;;
19495;SDS011;9888;48.606;9.630;2022-10-23T07:17:12;8.27;;;3.30;;
19495;SDS011;9888;48.606;9.630;2022-10-23T07:19:41;8.70;;;3.77;;
19495;SDS011;9888;48.606;9.630;2022-10-23T07:22:36;13.70;;;4.00;;
19495;SDS011;9888;48.606;9.630;2022-10-23T07:27:53;12.63;;;5.37;;
19495;SDS011;9888;48.606;9.630;2022-10-23T07:30:44;9.17;;;4.27;;
19495;SDS011;9888;48.606;9.630;2022-10-23T07:33:48;10.60;;;5.20;;
19495;SDS011;9888;48.606;9.630;2022-10-23T07:36:17;10.17;;;4.60;;
19495;SDS011;9888;48.606;9.630;2022-10-23T07:38:51;11.40;;;4.93;;
19495;SDS011;9888;48.606;9.630;2022-10-23T07:41:19;11.63;;;5.77;;
19495;SDS011;9888;48.606;9.630;2022-10-23T07:43:48;11.30;;;5.23;;
19495;SDS011;9888;48.606;9.630;2022-10-23T07:46:17;12.80;;;5.03;;
19495;SDS011;9888;48.606;9.630;2022-10-23T07:48:48;12.40;;;5.40;;
19495;SDS011;9888;48.606;9.630;2022-10-23T07:51:19;10.40;;;5.77;;
19495;SDS011;9888;48.606;9.630;2022-10-23T07:53:47;8.00;;;3.93;;
19495;SDS011;9888;48.606;9.630;2022-10-23T07:56:16;10.03;;;4.80;;
19495;SDS011;9888;48.606;9.630;2022-10-23T07:58:51;10.57;;;5.07;;
19495;SDS011;9888;48.606;9.630;2022-10-23T08:01:36;9.87;;;5.03;;
19495;SDS011;9888;48.606;9.630;2022-10-23T08:04:04;9.80;;;4.60;;
19495;SDS011;9888;48.606;9.630;2022-10-23T08:06:34;8.10;;;4.10;;
19495;SDS011;9888;48.606;9.630;2022-10-23T08:09:04;6.93;;;2.33;;
19495;SDS011;9888;48.606;9.630;2022-10-23T08:11:32;6.67;;;1.80;;
19495;SDS011;9888;48.606;9.630;2022-10-23T08:14:04;6.63;;;1.57;;
19495;SDS011;9888;48.606;9.630;2022-10-23T08:16:36;5.40;;;1.50;;
19495;SDS011;9888;48.606;9.630;2022-10-23T08:19:04;13.00;;;4.13;;
19495;SDS011;9888;48.606;9.630;2022-10-23T08:21:32;7.10;;;2.60;;
19495;SDS011;9888;48.606;9.630;2022-10-23T08:23:59;8.00;;;2.10;;
19495;SDS011;9888;48.606;9.630;2022-10-23T08:27:08;6.23;;;1.40;;
19495;SDS011;9888;48.606;9.630;2022-10-23T08:29:36;7.40;;;1.40;;
19495;SDS011;9888;48.606;9.630;2022-10-23T08:32:05;5.63;;;1.50;;
19495;SDS011;9888;48.606;9.630;2022-10-23T08:34:32;6.67;;;1.80;;
19495;SDS011;9888;48.606;9.630;2022-10-23T08:36:59;5.40;;;1.50;;
19495;SDS011;9888;48.606;9.630;2022-10-23T08:39:28;5.50;;;1.57;;
19495;SDS011;9888;48.606;9.630;2022-10-23T08:41:55;5.30;;;1.50;;
19495;SDS011;9888;48.606;9.630;2022-10-23T08:44:23;7.63;;;1.50;;
19495;SDS011;9888;48.606;9.630;2022-10-23T08:47:06;8.30;;;1.50;;
19495;SDS011;9888;48.606;9.630;2022-10-23T08:50:05;6.27;;;1.20;;
19495;SDS011;9888;48.606;9.630;2022-10-23T08:53:01;6.73;;;1.40;;
19495;SDS011;9888;48.606;9.630;2022-10-23T08:55:44;4.80;;;1.00;;
19495;SDS011;9888;48.606;9.630;2022-10-23T08:58:20;5.13;;;1.10;;
19495;SDS011;9888;48.606;9.630;2022-10-23T09:00:58;6.07;;;1.30;;
19495;SDS011;9888;48.606;9.630;2022-10-23T09:03:27;5.50;;;1.40;;
19495;SDS011;9888;48.606;9.630;2022-10-23T09:08:58;6.50;;;1.30;;
19495;SDS011;9888;48.606;9.630;2022-10-23T09:11:41;7.00;;;1.43;;
19495;SDS011;9888;48.606;9.630;2022-10-23T09:17:22;8.27;;;1.53;;
19495;SDS011;9888;48.606;9.630;2022-10-23T09:20:09;4.93;;;1.20;;
19495;SDS011;9888;48.606;9.630;2022-10-23T09:22:43;7.03;;;1.37;;
19495;SDS011;9888;48.606;9.630;2022-10-23T09:25:19;5.83;;;1.47;;
19495;SDS011;9888;48.606;9.630;2022-10-23T09:27:49;7.47;;;1.40;;
19495;SDS011;9888;48.606;9.630;2022-10-23T09:30:28;5.67;;;1.40;;
19495;SDS011;9888;48.606;9.630;2022-10-23T09:33:11;5.53;;;1.20;;
19495;SDS011;9888;48.606;9.630;2022-10-23T09:36:04;5.90;;;1.40;;
19495;SDS011;9888;48.606;9.630;2022-10-23T09:38:34;5.90;;;1.30;;
19495;SDS011;9888;48.606;9.630;2022-10-23T09:41:12;8.60;;;1.80;;
19495;SDS011;9888;48.606;9.630;2022-10-23T09:44:06;11.33;;;1.40;;
19495;SDS011;9888;48.606;9.630;2022-10-23T09:46:50;9.33;;;1.30;;
19495;SDS011;9888;48.606;9.630;2022-10-23T09:49:24;5.57;;;1.47;;
19495;SDS011;9888;48.606;9.630;2022-10-23T09:51:55;8.00;;;1.40;;
19495;SDS011;9888;48.606;9.630;2022-10-23T09:54:30;5.50;;;1.37;;
19495;SDS011;9888;48.606;9.630;2022-10-23T09:57:14;6.03;;;1.30;;
19495;SDS011;9888;48.606;9.630;2022-10-23T09:59:49;7.63;;;1.80;;
19495;SDS011;9888;48.606;9.630;2022-10-23T10:02:30;6.53;;;1.30;;
19495;SDS011;9888;48.606;9.630;2022-10-23T10:10:40;5.70;;;1.40;;
19495;SDS011;9888;48.606;9.630;2022-10-23T10:16:23;5.40;;;1.20;;
19495;SDS011;9888;48.606;9.630;2022-10-23T10:19:08;5.00;;;1.10;;
19495;SDS011;9888;48.606;9.630;2022-10-23T10:21:52;6.60;;;1.43;;
19495;SDS011;9888;48.606;9.630;2022-10-23T10:24:40;6.50;;;1.47;;
19495;SDS011;9888;48.606;9.630;2022-10-23T10:38:31;6.43;;;1.23;;
19495;SDS011;9888;48.606;9.630;2022-10-23T10:49:39;5.03;;;1.10;;
19495;SDS011;9888;48.606;9.630;2022-10-23T10:52:38;5.50;;;1.40;;
19495;SDS011;9888;48.606;9.630;2022-10-23T10:55:15;5.23;;;1.20;;
19495;SDS011;9888;48.606;9.630;2022-10-23T10:58:04;6.70;;;1.40;;
19495;SDS011;9888;48.606;9.630;2022-10-23T11:00:44;5.70;;;1.30;;
19495;SDS011;9888;48.606;9.630;2022-10-23T11:06:01;5.40;;;1.20;;
19495;SDS011;9888;48.606;9.630;2022-10-23T11:08:35;8.77;;;1.30;;
19495;SDS011;9888;48.606;9.630;2022-10-23T11:11:09;7.73;;;1.30;;
19495;SDS011;9888;48.606;9.630;2022-10-23T11:13:48;5.70;;;1.40;;
19495;SDS011;9888;48.606;9.630;2022-10-23T11:30:21;5.87;;;1.60;;
19495;SDS011;9888;48.606;9.630;2022-10-23T11:38:34;5.83;;;1.53;;
19495;SDS011;9888;48.606;9.630;2022-10-23T11:41:06;5.53;;;1.33;;
19495;SDS011;9888;48.606;9.630;2022-10-23T11:43:49;6.27;;;1.40;;
19495;SDS011;9888;48.606;9.630;2022-10-23T11:46:31;5.90;;;1.23;;
19495;SDS011;9888;48.606;9.630;2022-10-23T11:49:19;5.20;;;1.30;;
19495;SDS011;9888;48.606;9.630;2022-10-23T11:51:58;7.27;;;1.67;;
19495;SDS011;9888;48.606;9.630;2022-10-23T11:54:27;6.77;;;1.60;;
19495;SDS011;9888;48.606;9.630;2022-10-23T12:02:28;10.50;;;1.60;;
19495;SDS011;9888;48.606;9.630;2022-10-23T12:05:07;6.20;;;1.80;;
19495;SDS011;9888;48.606;9.630;2022-10-23T12:08:16;5.50;;;1.60;;
19495;SDS011;9888;48.606;9.630;2022-10-23T12:10:49;5.30;;;1.50;;
19495;SDS011;9888;48.606;9.630;2022-10-23T12:13:41;5.87;;;1.60;;
19495;SDS011;9888;48.606;9.630;2022-10-23T12:16:12;7.53;;;1.80;;
19495;SDS011;9888;48.606;9.630;2022-10-23T12:18:50;5.30;;;1.40;;
19495;SDS011;9888;48.606;9.630;2022-10-23T12:21:19;6.20;;;1.80;;
19495;SDS011;9888;48.606;9.630;2022-10-23T12:29:33;7.60;;;1.30;;
19495;SDS011;9888;48.606;9.630;2022-10-23T12:32:14;5.50;;;1.43;;
19495;SDS011;9888;48.606;9.630;2022-10-23T12:38:16;9.33;;;1.67;;
19495;SDS011;9888;48.606;9.630;2022-10-23T12:43:41;9.33;;;1.50;;
19495;SDS011;9888;48.606;9.630;2022-10-23T12:49:00;9.27;;;1.90;;
19495;SDS011;9888;48.606;9.630;2022-10-23T12:51:38;7.07;;;1.50;;
19495;SDS011;9888;48.606;9.630;2022-10-23T12:54:16;5.40;;;1.40;;
19495;SDS011;9888;48.606;9.630;2022-10-23T12:56:50;6.23;;;1.70;;
19495;SDS011;9888;48.606;9.630;2022-10-23T12:59:24;6.40;;;1.50;;
19495;SDS011;9888;48.606;9.630;2022-10-23T13:02:22;8.47;;;1.60;;
19495;SDS011;9888;48.606;9.630;2022-10-23T13:05:00;5.93;;;1.70;;
19495;SDS011;9888;48.606;9.630;2022-10-23T13:07:33;6.07;;;1.80;;
19495;SDS011;9888;48.606;9.630;2022-10-23T13:10:06;5.70;;;1.63;;
19495;SDS011;9888;48.606;9.630;2022-10-23T13:12:41;5.60;;;1.50;;
19495;SDS011;9888;48.606;9.630;2022-10-23T13:15:18;6.67;;;1.50;;
19495;SDS011;9888;48.606;9.630;2022-10-23T13:20:23;5.73;;;1.57;;
19495;SDS011;9888;48.606;9.630;2022-10-23T13:22:56;5.90;;;1.73;;
19495;SDS011;9888;48.606;9.630;2022-10-23T13:25:51;5.90;;;1.70;;
19495;SDS011;9888;48.606;9.630;2022-10-23T13:28:23;7.67;;;2.00;;
19495;SDS011;9888;48.606;9.630;2022-10-23T13:30:58;6.63;;;1.50;;
19495;SDS011;9888;48.606;9.630;2022-10-23T13:33:51;6.00;;;1.83;;
19495;SDS011;9888;48.606;9.630;2022-10-23T13:36:35;5.70;;;1.50;;
19495;SDS011;9888;48.606;9.630;2022-10-23T13:39:12;5.80;;;1.70;;
19495;SDS011;9888;48.606;9.630;2022-10-23T13:41:44;5.70;;;1.70;;
19495;SDS011;9888;48.606;9.630;2022-10-23T13:44:21;6.70;;;1.70;;
19495;SDS011;9888;48.606;9.630;2022-10-23T13:46:49;6.70;;;1.87;;
19495;SDS011;9888;48.606;9.630;2022-10-23T13:49:16;8.10;;;1.53;;
19495;SDS011;9888;48.606;9.630;2022-10-23T13:51:47;7.20;;;1.50;;
19495;SDS011;9888;48.606;9.630;2022-10-23T13:54:25;6.17;;;1.57;;
19495;SDS011;9888;48.606;9.630;2022-10-23T13:56:55;5.80;;;1.50;;
19495;SDS011;9888;48.606;9.630;2022-10-23T13:59:23;6.13;;;1.60;;
19495;SDS011;9888;48.606;9.630;2022-10-23T14:01:54;5.63;;;1.60;;
19495;SDS011;9888;48.606;9.630;2022-10-23T14:04:21;6.73;;;2.33;;
19495;SDS011;9888;48.606;9.630;2022-10-23T14:06:49;8.70;;;1.70;;
19495;SDS011;9888;48.606;9.630;2022-10-23T14:09:23;5.80;;;1.50;;
19495;SDS011;9888;48.606;9.630;2022-10-23T14:11:50;8.70;;;1.80;;
19495;SDS011;9888;48.606;9.630;2022-10-23T14:14:17;5.90;;;1.60;;
19495;SDS011;9888;48.606;9.630;2022-10-23T14:16:44;6.47;;;1.60;;
19495;SDS011;9888;48.606;9.630;2022-10-23T14:19:12;8.33;;;2.20;;
19495;SDS011;9888;48.606;9.630;2022-10-23T14:21:39;8.77;;;1.83;;
19495;SDS011;9888;48.606;9.630;2022-10-23T14:24:06;8.70;;;2.00;;
19495;SDS011;9888;48.606;9.630;2022-10-23T14:26:33;6.47;;;1.80;;
19495;SDS011;9888;48.606;9.630;2022-10-23T14:29:00;6.13;;;1.80;;
19495;SDS011;9888;48.606;9.630;2022-10-23T14:31:28;7.10;;;1.60;;
19495;SDS011;9888;48.606;9.630;2022-10-23T14:33:57;10.00;;;2.10;;
19495;SDS011;9888;48.606;9.630;2022-10-23T14:36:26;6.27;;;1.80;;
19495;SDS011;9888;48.606;9.630;2022-10-23T14:38:54;9.00;;;1.87;;
19495;SDS011;9888;48.606;9.630;2022-10-23T14:41:24;7.07;;;1.80;;
19495;SDS011;9888;48.606;9.630;2022-10-23T14:44:06;9.00;;;1.93;;
19495;SDS011;9888;48.606;9.630;2022-10-23T14:46:37;8.83;;;2.27;;
19495;SDS011;9888;48.606;9.630;2022-10-23T14:49:04;5.80;;;1.70;;
19495;SDS011;9888;48.606;9.630;2022-10-23T14:51:32;5.40;;;1.43;;
19495;SDS011;9888;48.606;9.630;2022-10-23T14:54:05;11.40;;;1.90;;
19495;SDS011;9888;48.606;9.630;2022-10-23T14:56:35;14.23;;;1.90;;
19495;SDS011;9888;48.606;9.630;2022-10-23T14:59:05;10.10;;;1.73;;
19495;SDS011;9888;48.606;9.630;2022-10-23T15:01:38;7.00;;;1.60;;
19495;SDS011;9888;48.606;9.630;2022-10-23T15:04:08;6.07;;;1.60;;
19495;SDS011;9888;48.606;9.630;2022-10-23T15:06:36;7.13;;;2.03;;
19495;SDS011;9888;48.606;9.630;2022-10-23T15:09:05;8.97;;;2.00;;
19495;SDS011;9888;48.606;9.630;2022-10-23T15:11:36;13.03;;;2.97;;
19495;SDS011;9888;48.606;9.630;2022-10-23T15:14:08;8.80;;;2.57;;
19495;SDS011;9888;48.606;9.630;2022-10-23T15:16:36;12.70;;;2.90;;
19495;SDS011;9888;48.606;9.630;2022-10-23T15:19:11;7.33;;;3.17;;
19495;SDS011;9888;48.606;9.630;2022-10-23T15:21:41;14.43;;;4.53;;
19495;SDS011;9888;48.606;9.630;2022-10-23T15:24:09;11.87;;;2.43;;
19495;SDS011;9888;48.606;9.630;2022-10-23T15:26:37;13.47;;;2.67;;
19495;SDS011;9888;48.606;9.630;2022-10-23T15:29:09;26.90;;;3.13;;
19495;SDS011;9888;48.606;9.630;2022-10-23T15:31:39;13.47;;;2.60;;
19495;SDS011;9888;48.606;9.630;2022-10-23T15:34:09;7.03;;;2.43;;
19495;SDS011;9888;48.606;9.630;2022-10-23T15:36:40;7.77;;;2.20;;
19495;SDS011;9888;48.606;9.630;2022-10-23T15:39:09;10.20;;;2.30;;
19495;SDS011;9888;48.606;9.630;2022-10-23T15:41:39;11.30;;;2.63;;
19495;SDS011;9888;48.606;9.630;2022-10-23T15:44:08;7.40;;;2.20;;
19495;SDS011;9888;48.606;9.630;2022-10-23T15:46:41;7.27;;;2.40;;
19495;SDS011;9888;48.606;9.630;2022-10-23T15:49:16;139.57;;;11.20;;
19495;SDS011;9888;48.606;9.630;2022-10-23T15:51:44;143.43;;;11.53;;
19495;SDS011;9888;48.606;9.630;2022-10-23T15:54:12;26.00;;;4.50;;
19495;SDS011;9888;48.606;9.630;2022-10-23T15:56:44;20.27;;;2.70;;
19495;SDS011;9888;48.606;9.630;2022-10-23T15:59:13;11.07;;;2.60;;
19495;SDS011;9888;48.606;9.630;2022-10-23T16:01:40;8.30;;;2.40;;
19495;SDS011;9888;48.606;9.630;2022-10-23T16:04:07;15.83;;;2.97;;
19495;SDS011;9888;48.606;9.630;2022-10-23T16:06:34;6.23;;;2.03;;
19495;SDS011;9888;48.606;9.630;2022-10-23T16:09:01;8.60;;;2.70;;
19495;SDS011;9888;48.606;9.630;2022-10-23T16:11:30;7.40;;;2.00;;
19495;SDS011;9888;48.606;9.630;2022-10-23T16:13:59;8.63;;;3.23;;
19495;SDS011;9888;48.606;9.630;2022-10-23T16:16:28;15.70;;;4.37;;
19495;SDS011;9888;48.606;9.630;2022-10-23T16:18:58;17.83;;;3.57;;
19495;SDS011;9888;48.606;9.630;2022-10-23T16:21:33;10.70;;;3.00;;
19495;SDS011;9888;48.606;9.630;2022-10-23T16:24:02;8.40;;;2.03;;
19495;SDS011;9888;48.606;9.630;2022-10-23T16:26:33;7.40;;;2.03;;
19495;SDS011;9888;48.606;9.630;2022-10-23T16:29:04;7.67;;;2.47;;
19495;SDS011;9888;48.606;9.630;2022-10-23T16:31:36;10.57;;;2.60;;
19495;SDS011;9888;48.606;9.630;2022-10-23T16:34:03;6.33;;;1.90;;
19495;SDS011;9888;48.606;9.630;2022-10-23T16:36:32;9.03;;;2.00;;
19495;SDS011;9888;48.606;9.630;2022-10-23T16:39:04;10.27;;;1.80;;
19495;SDS011;9888;48.606;9.630;2022-10-23T16:41:32;7.17;;;2.30;;
19495;SDS011;9888;48.606;9.630;2022-10-23T16:44:00;9.97;;;3.10;;
19495;SDS011;9888;48.606;9.630;2022-10-23T16:46:32;8.90;;;2.43;;
19495;SDS011;9888;48.606;9.630;2022-10-23T16:49:00;9.83;;;2.73;;
19495;SDS011;9888;48.606;9.630;2022-10-23T16:51:28;7.40;;;2.40;;
19495;SDS011;9888;48.606;9.630;2022-10-23T16:54:00;9.43;;;2.50;;
19495;SDS011;9888;48.606;9.630;2022-10-23T16:56:27;8.50;;;2.53;;
19495;SDS011;9888;48.606;9.630;2022-10-23T16:59:02;7.27;;;2.30;;
19495;SDS011;9888;48.606;9.630;2022-10-23T17:01:33;7.63;;;2.43;;
19495;SDS011;9888;48.606;9.630;2022-10-23T17:04:00;11.97;;;2.73;;
19495;SDS011;9888;48.606;9.630;2022-10-23T17:06:29;7.87;;;2.43;;
19495;SDS011;9888;48.606;9.630;2022-10-23T17:08:59;7.67;;;3.10;;
19495;SDS011;9888;48.606;9.630;2022-10-23T17:11:30;8.60;;;2.60;;
19495;SDS011;9888;48.606;9.630;2022-10-23T17:14:00;7.83;;;3.10;;
19495;SDS011;9888;48.606;9.630;2022-10-23T17:16:39;7.67;;;3.00;;
19495;SDS011;9888;48.606;9.630;2022-10-23T17:19:11;7.43;;;2.73;;
19495;SDS011;9888;48.606;9.630;2022-10-23T17:21:39;8.50;;;2.50;;
19495;SDS011;9888;48.606;9.630;2022-10-23T17:24:08;8.30;;;3.07;;
19495;SDS011;9888;48.606;9.630;2022-10-23T17:26:41;10.27;;;2.90;;
19495;SDS011;9888;48.606;9.630;2022-10-23T17:29:09;7.43;;;2.80;;
19495;SDS011;9888;48.606;9.630;2022-10-23T17:31:42;7.10;;;2.83;;
19495;SDS011;9888;48.606;9.630;2022-10-23T17:34:13;8.53;;;2.63;;
19495;SDS011;9888;48.606;9.630;2022-10-23T17:36:46;9.10;;;2.83;;
19495;SDS011;9888;48.606;9.630;2022-10-23T17:39:17;8.10;;;2.73;;
19495;SDS011;9888;48.606;9.630;2022-10-23T17:41:47;7.77;;;2.70;;
19495;SDS011;9888;48.606;9.630;2022-10-23T17:44:15;8.30;;;3.63;;
19495;SDS011;9888;48.606;9.630;2022-10-23T17:46:43;8.50;;;2.87;;
19495;SDS011;9888;48.606;9.630;2022-10-23T17:49:11;8.70;;;2.90;;
19495;SDS011;9888;48.606;9.630;2022-10-23T17:51:39;9.60;;;2.90;;
19495;SDS011;9888;48.606;9.630;2022-10-23T17:54:07;14.03;;;2.90;;
19495;SDS011;9888;48.606;9.630;2022-10-23T17:56:37;11.60;;;2.80;;
19495;SDS011;9888;48.606;9.630;2022-10-23T17:59:13;11.73;;;2.67;;
19495;SDS011;9888;48.606;9.630;2022-10-23T18:01:44;8.80;;;2.77;;
19495;SDS011;9888;48.606;9.630;2022-10-23T18:04:13;10.23;;;2.73;;
19495;SDS011;9888;48.606;9.630;2022-10-23T18:06:42;14.50;;;3.00;;
19495;SDS011;9888;48.606;9.630;2022-10-23T18:09:16;11.33;;;2.97;;
19495;SDS011;9888;48.606;9.630;2022-10-23T18:11:45;8.87;;;2.70;;
19495;SDS011;9888;48.606;9.630;2022-10-23T18:14:16;23.93;;;2.80;;
19495;SDS011;9888;48.606;9.630;2022-10-23T18:16:45;12.13;;;2.80;;
19495;SDS011;9888;48.606;9.630;2022-10-23T18:19:13;9.43;;;2.70;;
19495;SDS011;9888;48.606;9.630;2022-10-23T18:21:42;13.67;;;3.57;;
19495;SDS011;9888;48.606;9.630;2022-10-23T18:24:10;11.37;;;2.97;;
19495;SDS011;9888;48.606;9.630;2022-10-23T18:26:45;10.17;;;2.60;;
19495;SDS011;9888;48.606;9.630;2022-10-23T18:29:14;10.30;;;3.40;;
19495;SDS011;9888;48.606;9.630;2022-10-23T18:31:42;19.17;;;3.13;;
19495;SDS011;9888;48.606;9.630;2022-10-23T18:34:13;8.53;;;2.53;;